Historyczne dane pomiarowe

Dodano dane terminowe – wersja testowa.

Dane z okresu 1951-2019

Wersja bazy: 1.34 [2019-03-16, lista zmian], aktualizacja planowana na 2019-04-15

Dane meteo z obszaru Polski uzyskane na podstawie danych udostępnionych przez Instytut Meteorologii i Gospodarki Wodnej – Państwowy Instytut Badawczy.

 

Wybierz Datę:    

       

TemperaturaWilgotnośćZachmurzenieWiatrCiśnienieWidzialnośćZjawiska
 Data    tng td wb rh cc ccl cl cm ch dir g1 g2 mslp ppp      
1999-06-25 00:00:00 6.6--- 5.8 6.294wxwx2wx--1024.0 998.6 0.0---wx
1999-06-25 01:00:00 6.4--- 5.6 6.094wxwx2wx--1023.9 998.5----wx
1999-06-25 02:00:00 6.0--- 5.4 5.796wxwx2wx--1023.9 998.5----wx
1999-06-25 03:00:00 5.2--- 4.8 5.097wxwxwx2wx--1024.1 998.6----wx
1999-06-25 04:00:00 6.0--- 5.6 5.897wxwxwx1wx--1023.9 998.5----wx
1999-06-25 05:00:00 7.6--- 6.8 7.295wxwxwx0wx--1023.8 998.5----wx
1999-06-25 06:00:00 10.4--- 8.9 9.690wxwxwx1wx--1023.4 998.4 0.0---wx
1999-06-25 07:00:00 13.5--- 9.5 11.377wxwxwxwx2wx--1023.0 998.2----wx
1999-06-25 08:00:00 15.2--- 8.0 11.362wxwxwxwx1wx--1022.6 998.0----wx
1999-06-25 09:00:00 16.0--- 8.5 11.961wxwxwx2wx--1022.2 997.7----wx
1999-06-25 10:00:00 16.8--- 9.1 12.560wxwxwxwx2wx--1021.8 997.3----wx
1999-06-25 11:00:00 17.3--- 10.3 13.363wxwxwxwx2wx--1021.3 996.9----wx
1999-06-25 12:00:00 17.9--- 10.2 13.561wxwxwxwxwx2wx--1020.9 996.6 0.0---wx
1999-06-25 13:00:00 18.2--- 8.5 12.853wxwxwxwxwx2wx--1020.5 996.2----wx
1999-06-25 14:00:00 18.5--- 10.5 13.960wxwxwxwxwx3wx--1020.0 995.7----wx
1999-06-25 15:00:00 18.5--- 8.2 12.851wxwxwxwxwx1wx--1019.4 995.1----wx
1999-06-25 16:00:00 18.9--- 8.5 13.151wxwxwxwx0wx--1019.0 994.8----wx
1999-06-25 17:00:00 18.8--- 9.0 13.353wxwxwxwx1wx--1018.9 994.7----wx
1999-06-25 18:00:00 17.4--- 9.2 12.858wxwxwx1wx--1018.8 994.5 0.0---wx
1999-06-25 19:00:00 15.0--- 10.0 12.272wxwxwx1wx--1018.9 994.4----wx
1999-06-25 20:00:00 12.0--- 9.0 10.482wxwxwx0wx--1019.4 994.6----wx
1999-06-25 21:00:00 10.4--- 8.9 9.690wxwx2wx--1019.3 994.4----wx
1999-06-25 22:00:00 10.6--- 9.9 10.295wxwxwx2wx--1019.3 994.4----wx
1999-06-25 23:00:00 10.0--- 9.3 9.695wxwxwx3wx--1019.3 994.3----wx

 

Źródłem pochodzenia danych jest Instytut Meteorologii i Gospodarki Wodnej – Państwowy Instytut Badawczy. Dane Instytutu Meteorologii i Gospodarki Wodnej – Państwowego Instytutu Badawczego zostały przetworzone.

Dane źródłowe można odnaleźć na stronie https://dane.imgw.pl